Fresno, CA

12:31 AM PST on February 14, 2016 (GMT -0800)
NE Fresno | | Change Station
CLOSE
Current Station
Personal Weather Station
Location: Fresno, CA
Elevation: 364 ft
Nearby Weather Stations

Elev 364 ft 36.85 °N, 119.74 °W | Updated 35 seconds ago

Fog
Fog
47.7 °F
Feels Like 48 °F
N
0.0
Wind Variable Wind from WNW

Today
High -- | Low -- °F
--% Chance of Precip.
Yesterday
High -- | Low -- °F
Precip. -- in
Pressure 30.26 in
Visibility 2.5 miles
Clouds Clear
Windchill 48 °F
Dew Point 47 °F
Humidity 98%
Rainfall 0.00 in
Snow Depth Not available.
6:49 AM 5:38 PM
Waxing Crescent, 39% visible
METAR KFAT 140753Z 00000KT 2 1/2SM BR CLR 12/10 A3026 RMK AO2 SLP246 T01170100 402000078
Pressure 30.26 in
Visibility 2.5 miles
Clouds Clear
Windchill 48 °F
Dew Point 47 °F
Humidity 98%
Rainfall 0.00 in
Snow Depth Not available.
6:49 AM 5:38 PM
Waxing Crescent, 39% visible
METAR KFAT 140753Z 00000KT 2 1/2SM BR CLR 12/10 A3026 RMK AO2 SLP246 T01170100 402000078

10-Day Weather Forecast

Almanac

Astronomy

Feb. 14, 2016 Rise Set
Actual Time
Civil Twilight
Nautical Twilight
Astronomical Twilight
Moon
Length of Visible Light
Length of Day
Tomorrow will be .
, % of the Moon is Illuminated

Today's Extremes

State Highs State Lows

Community

WunderPhotos

Upload Photos

1,892,757 photos uploaded!

WunderBlog® & News

Nearby

Air Quality

  Air Quality AQ Index Pollutant
Not available.

Snow Depth

Station Depth Elevation

Earthquake Activity

City Distance Mag. Time & Date
Minimum magnitude displayed is 2.5.

Coastal Water Temperatures

Place Temperature

Stations

Nearby Weather Stations

Station Location Temp. Windchill Dew Point Humidity Wind Precip. Elev Updated Type
                   

Watches & Warnings

There are currently no watches in effect.